Airfield :
LOGIN :

Register | Disclaimer

   EN    FR    IT 

 










Legend :    VFR   Marginal VFR   IFR   Intensive IFR   Very Intensive IFR
Visi :
Ceiling :
>= 8 km
>= 3000ft
5 to 8 km
1000 to 3000 ft
1500m to 5 km
500 to 1000 ft
800 to 1500m
200 to 500 ft
< 800m
< 200 ft
Symbols :   Thunderstorms  Fog  Heavy snow  Heavy precipitations  Wind > 20 kt
SIGMETs :     Misc.  Thunderstorms  Icing  Turbulence  Mountain Waves  Volcanic Ashes







- Airport Elevation : 622 ft
- IATA code : BRS
- Download approach charts


EGGD - Bristol Int.

CURRENT METAR :
  • 210820Z AUTO 09018KT 9999 NCD 14/08 Q1011

EXPIRED METARs :
  • 210750Z AUTO 10017KT 9999 NCD 13/08 Q1011
  • 210720Z AUTO 09017KT 9999 NCD 12/08 Q1011
  • 210650Z AUTO 09013KT 9999 NCD 11/07 Q1012
  • 210620Z AUTO 09013KT 9999 NCD 10/07 Q1012
  • 210550Z AUTO 09012KT 9999 NCD 10/07 Q1012

TAF TAF EGGD
Valid from the 21 at 06:00 until the 22 at 06:00 UTC


210457Z 2106/2206 11012KT CAVOK
TEMPO 2106/2108 12015G25KT
PROB30
TEMPO 2118/2124 10015G25KT
BECMG 2200/2203 BKN030
PROB30
TEMPO 2200/2206 6000 SHRA BKN007
ATIS : +44 1275 473 666
No reported NOTAMs for that airfield.



MET'MAP, your aeronautical weather chart ! - Copyright ORBIFLY December 2007 - Disclaimer

ORBIFLY MET'MAP TEAM :

Programming & Development : Alexandra Zaïnal
Concept & Development : Baudouin d'Aumeries
Co-Development & Prog : Marc-Olivier Méhu
Technical & hardware support : Manuel Goepfert

Contact : metmap@orbifly.com




SOURCES & CREDITS :

   NOAA